Time;durP1;ratioP1;P1;durP2;ratioP2;P2;SDS_P1;SDS_P2;PMS_P1;PMS_P2;Temp;Humidity;BMP_temperature;BMP_pressure;BME280_temperature;BME280_humidity;BME280_pressure;Samples;Min_cycle;Max_cycle;Signal;HPM_P1;HPM_P2
2023/06/07 00:00:44;;;;;;;15.10;8.83;;;;;;;;;;5081620;28;20174;-80
2023/06/07 00:03:11;;;;;;;13.67;8.40;;;;;;;;;;5098686;28;20206;-80
2023/06/07 00:05:38;;;;;;;13.37;9.10;;;;;;;;;;5082044;28;20222;-89
2023/06/07 00:08:05;;;;;;;16.20;9.17;;;;;;;;;;5098368;28;20182;-76
2023/06/07 00:10:33;;;;;;;12.25;8.82;;;;;;;;;;5081045;28;20425;-76
2023/06/07 00:12:59;;;;;;;17.05;9.75;;;;;;;;;;5096832;28;20491;-76
2023/06/07 00:15:25;;;;;;;14.20;9.20;;;;;;;;;;5097995;28;20169;-80
2023/06/07 00:17:52;;;;;;;14.10;9.20;;;;;;;;;;5097753;28;20269;-81
2023/06/07 00:20:18;;;;;;;15.37;8.87;;;;;;;;;;5080846;28;20182;-81
2023/06/07 00:22:47;;;;;;;14.53;9.00;;;;;;;;;;5097810;28;20231;-81
2023/06/07 00:25:13;;;;;;;14.13;8.90;;;;;;;;;;5081027;28;20240;-80
2023/06/07 00:27:39;;;;;;;14.77;8.70;;;;;;;;;;5115634;28;20213;-80
2023/06/07 00:30:06;;;;;;;12.77;8.73;;;;;;;;;;5081146;28;20186;-80
2023/06/07 00:32:32;;;;;;;14.77;8.43;;;;;;;;;;5080990;28;20254;-77
2023/06/07 00:34:58;;;;;;;14.20;9.03;;;;;;;;;;5097256;28;20525;-77
2023/06/07 00:37:24;;;;;;;12.77;8.30;;;;;;;;;;5080540;28;20184;-77
2023/06/07 00:39:50;;;;;;;11.67;8.57;;;;;;;;;;5097265;28;20304;-80
2023/06/07 00:42:16;;;;;;;13.93;8.50;;;;;;;;;;5080404;28;20266;-80
2023/06/07 00:44:42;;;;;;;15.27;9.13;;;;;;;;;;5097581;28;20186;-80
2023/06/07 00:47:09;;;;;;;15.17;8.53;;;;;;;;;;5080751;28;20181;-80
2023/06/07 00:49:35;;;;;;;15.80;8.70;;;;;;;;;;5076905;28;20182;-80
2023/06/07 00:52:01;;;;;;;16.47;8.97;;;;;;;;;;5074388;28;20189;-80
2023/06/07 00:54:28;;;;;;;19.53;8.87;;;;;;;;;;5095343;28;20188;-80
2023/06/07 00:56:54;;;;;;;16.37;8.50;;;;;;;;;;5095113;28;20186;-80
2023/06/07 00:59:21;;;;;;;13.97;8.43;;;;;;;;;;5079838;28;20212;-80
2023/06/07 01:01:55;;;;;;;11.57;8.23;;;;;;;;;;5076274;28;20206;-80
2023/06/07 01:04:22;;;;;;;16.63;8.63;;;;;;;;;;5071679;28;20181;-80
2023/06/07 01:06:49;;;;;;;12.03;8.73;;;;;;;;;;5094725;28;20174;-88
2023/06/07 01:09:16;;;;;;;12.43;8.40;;;;;;;;;;5076441;28;20216;-89
2023/06/07 01:11:45;;;;;;;15.43;8.43;;;;;;;;;;5085854;28;20190;-88
2023/06/07 01:14:11;;;;;;;14.53;8.27;;;;;;;;;;5096006;28;20238;-88
2023/06/07 01:16:38;;;;;;;16.33;8.95;;;;;;;;;;5061929;28;20467;-76
2023/06/07 01:19:05;;;;;;;15.55;8.90;;;;;;;;;;5077688;28;20431;-78
2023/06/07 01:21:32;;;;;;;14.48;9.02;;;;;;;;;;5074631;28;20412;-89
2023/06/07 01:23:59;;;;;;;12.60;8.93;;;;;;;;;;5079578;28;20448;-88
2023/06/07 01:26:27;;;;;;;14.57;8.40;;;;;;;;;;5095230;28;20513;-89
2023/06/07 01:28:54;;;;;;;17.08;9.20;;;;;;;;;;5095263;28;20423;-88
2023/06/07 01:31:21;;;;;;;14.00;8.65;;;;;;;;;;5111941;28;20530;-88
2023/06/07 01:33:48;;;;;;;14.48;8.85;;;;;;;;;;5093596;28;20419;-89
2023/06/07 01:36:14;;;;;;;14.35;8.68;;;;;;;;;;5110241;28;20421;-89
2023/06/07 01:38:41;;;;;;;16.45;9.00;;;;;;;;;;5089901;28;20457;-77
2023/06/07 01:41:08;;;;;;;16.40;9.40;;;;;;;;;;5072259;28;20423;-77
2023/06/07 01:43:34;;;;;;;13.00;9.20;;;;;;;;;;5088775;28;20413;-77
2023/06/07 01:46:00;;;;;;;12.77;9.20;;;;;;;;;;5072037;28;20407;-77
2023/06/07 01:48:26;;;;;;;15.60;9.25;;;;;;;;;;5088356;28;20497;-77
2023/06/07 01:50:52;;;;;;;15.53;8.90;;;;;;;;;;5091849;28;20419;-77
2023/06/07 01:53:18;;;;;;;14.33;9.03;;;;;;;;;;5075664;28;20431;-77
2023/06/07 01:55:45;;;;;;;16.25;8.98;;;;;;;;;;5069418;28;20461;-89
2023/06/07 01:58:33;;;;;;;15.10;9.07;;;;;;;;;;5072748;28;20451;-90
2023/06/07 02:01:06;;;;;;;16.63;9.80;;;;;;;;;;5079935;28;20407;-89
2023/06/07 02:03:45;;;;;;;14.10;9.20;;;;;;;;;;5089860;28;20426;-89
2023/06/07 02:06:14;;;;;;;13.02;9.00;;;;;;;;;;5089919;28;20438;-89
2023/06/07 02:08:45;;;;;;;16.08;9.63;;;;;;;;;;5099216;28;20406;-89
2023/06/07 02:11:11;;;;;;;14.60;9.15;;;;;;;;;;5079241;28;20496;-90
2023/06/07 02:13:39;;;;;;;16.08;9.45;;;;;;;;;;5116077;28;20402;-76
2023/06/07 02:16:06;;;;;;;14.30;8.88;;;;;;;;;;5113240;28;20396;-76
2023/06/07 02:18:40;;;;;;;13.73;9.45;;;;;;;;;;5082082;28;20427;-76
2023/06/07 02:21:06;;;;;;;16.15;9.50;;;;;;;;;;5098983;28;20414;-76
2023/06/07 02:23:32;;;;;;;12.57;9.20;;;;;;;;;;5099118;28;20472;-76
2023/06/07 02:25:58;;;;;;;15.57;9.38;;;;;;;;;;5098920;28;20431;-76
2023/06/07 02:28:24;;;;;;;12.90;9.52;;;;;;;;;;5082032;28;20407;-80
2023/06/07 02:30:51;;;;;;;15.63;8.63;;;;;;;;;;5116984;28;20403;-80
2023/06/07 02:33:21;;;;;;;15.90;9.93;;;;;;;;;;5098749;28;20403;-80
2023/06/07 02:35:47;;;;;;;14.73;9.30;;;;;;;;;;5116821;28;20485;-80
2023/06/07 02:38:13;;;;;;;12.70;9.03;;;;;;;;;;5098272;28;20423;-80
2023/06/07 02:40:40;;;;;;;16.80;9.88;;;;;;;;;;5082184;28;20421;-80
2023/06/07 02:43:06;;;;;;;17.02;9.55;;;;;;;;;;5098507;28;20406;-80
2023/06/07 02:45:32;;;;;;;14.77;9.27;;;;;;;;;;5116628;28;20486;-77
2023/06/07 02:47:58;;;;;;;14.27;9.82;;;;;;;;;;5081433;28;20400;-77
2023/06/07 02:50:24;;;;;;;15.10;9.52;;;;;;;;;;5098205;28;20493;-76
2023/06/07 02:52:50;;;;;;;16.75;9.48;;;;;;;;;;5081834;28;20399;-76
2023/06/07 02:55:17;;;;;;;15.67;9.43;;;;;;;;;;5078185;28;20428;-76
2023/06/07 02:57:43;;;;;;;14.32;9.38;;;;;;;;;;5097079;28;20430;-77
2023/06/07 03:00:11;;;;;;;15.93;9.60;;;;;;;;;;5090448;28;20417;-76
2023/06/07 03:02:41;;;;;;;15.48;9.68;;;;;;;;;;5110386;28;20422;-89
2023/06/07 03:05:07;;;;;;;15.70;9.20;;;;;;;;;;5098536;28;20403;-89
2023/06/07 03:07:35;;;;;;;13.90;9.52;;;;;;;;;;5098561;28;20430;-89
2023/06/07 03:10:01;;;;;;;16.77;9.65;;;;;;;;;;5097664;28;20398;-89
2023/06/07 03:12:27;;;;;;;14.80;9.73;;;;;;;;;;5097655;28;20407;-89
2023/06/07 03:14:53;;;;;;;15.77;9.43;;;;;;;;;;5093124;28;20423;-89
2023/06/07 03:17:19;;;;;;;16.55;10.10;;;;;;;;;;5089077;28;20474;-88
2023/06/07 03:19:45;;;;;;;15.60;10.20;;;;;;;;;;5082267;28;20523;-89
2023/06/07 03:22:11;;;;;;;16.73;9.73;;;;;;;;;;5080342;28;20419;-80
2023/06/07 03:24:38;;;;;;;16.58;9.15;;;;;;;;;;5097704;28;20416;-80
2023/06/07 03:27:04;;;;;;;14.13;9.35;;;;;;;;;;5077052;28;20444;-80
2023/06/07 03:29:30;;;;;;;16.83;9.68;;;;;;;;;;5112181;28;20414;-80
2023/06/07 03:31:56;;;;;;;14.13;9.50;;;;;;;;;;5096302;28;20419;-80
2023/06/07 03:34:23;;;;;;;17.05;9.95;;;;;;;;;;5079528;28;20447;-80
2023/06/07 03:36:49;;;;;;;16.80;9.95;;;;;;;;;;5097767;28;20430;-89
2023/06/07 03:39:15;;;;;;;16.87;10.03;;;;;;;;;;5105203;22;20553;-82
2023/06/07 03:41:41;;;;;;;15.80;9.43;;;;;;;;;;5066426;28;20408;-82
2023/06/07 03:44:07;;;;;;;17.23;9.60;;;;;;;;;;5069347;28;20389;-82
2023/06/07 03:46:33;;;;;;;16.02;9.63;;;;;;;;;;5061040;28;20401;-81
2023/06/07 03:48:59;;;;;;;15.32;9.70;;;;;;;;;;5095255;28;20407;-81
2023/06/07 03:51:26;;;;;;;16.50;9.63;;;;;;;;;;5080711;28;20522;-81
2023/06/07 03:53:52;;;;;;;14.53;9.43;;;;;;;;;;5080436;28;20429;-81
2023/06/07 03:56:18;;;;;;;17.53;9.43;;;;;;;;;;5080148;28;20441;-81
2023/06/07 03:58:46;;;;;;;15.65;9.25;;;;;;;;;;5080288;28;20433;-81
2023/06/07 04:01:12;;;;;;;13.43;8.80;;;;;;;;;;5062358;28;20435;-81
2023/06/07 04:03:38;;;;;;;13.85;9.02;;;;;;;;;;5079806;28;20403;-83
2023/06/07 04:06:05;;;;;;;15.23;9.38;;;;;;;;;;5079118;28;20482;-83
2023/06/07 04:08:31;;;;;;;16.53;9.33;;;;;;;;;;5092820;28;20405;-82
2023/06/07 04:10:57;;;;;;;15.20;9.20;;;;;;;;;;5079761;28;20430;-81
2023/06/07 04:13:23;;;;;;;15.40;8.97;;;;;;;;;;5079494;28;20404;-81
2023/06/07 04:15:49;;;;;;;17.25;9.23;;;;;;;;;;5077659;28;20409;-82
2023/06/07 04:18:15;;;;;;;17.05;9.38;;;;;;;;;;5096409;28;20430;-82
2023/06/07 04:20:41;;;;;;;15.88;9.20;;;;;;;;;;5079076;28;20434;-82
2023/06/07 04:23:07;;;;;;;14.68;9.00;;;;;;;;;;5079430;28;20399;-82
2023/06/07 04:25:33;;;;;;;15.27;8.97;;;;;;;;;;5078175;28;20546;-83
2023/06/07 04:28:03;;;;;;;15.88;8.88;;;;;;;;;;5092882;28;20415;-83
2023/06/07 04:30:36;;;;;;;17.25;8.95;;;;;;;;;;5092632;28;20404;-83
2023/06/07 04:33:08;;;;;;;15.27;9.10;;;;;;;;;;5093349;28;20407;-83
2023/06/07 04:35:35;;;;;;;16.45;9.30;;;;;;;;;;5096619;28;20412;-83
2023/06/07 04:38:04;;;;;;;14.57;7.93;;;;;;;;;;5091201;28;20423;-83
2023/06/07 04:40:30;;;;;;;15.77;8.43;;;;;;;;;;5096459;28;20500;-84
2023/06/07 04:43:04;;;;;;;17.63;8.90;;;;;;;;;;5095612;28;20516;-81
2023/06/07 04:45:33;;;;;;;16.07;8.47;;;;;;;;;;5096040;28;20493;-81
2023/06/07 04:47:59;;;;;;;17.40;9.10;;;;;;;;;;5079589;28;20411;-81
2023/06/07 04:50:26;;;;;;;15.95;8.43;;;;;;;;;;5096332;28;20407;-81
2023/06/07 04:53:00;;;;;;;18.55;9.35;;;;;;;;;;5096202;28;20421;-81
2023/06/07 04:55:28;;;;;;;16.00;8.98;;;;;;;;;;5096352;28;20418;-81
2023/06/07 04:57:54;;;;;;;19.50;8.95;;;;;;;;;;5079379;28;20403;-81
2023/06/07 05:00:21;;;;;;;17.80;8.98;;;;;;;;;;5080472;28;20411;-82
2023/06/07 05:02:47;;;;;;;16.90;8.75;;;;;;;;;;5067211;28;20463;-82
2023/06/07 05:05:14;;;;;;;13.60;8.13;;;;;;;;;;5076143;28;20423;-82
2023/06/07 05:07:41;;;;;;;14.23;8.15;;;;;;;;;;5079371;28;20411;-82
2023/06/07 05:10:07;;;;;;;15.93;8.13;;;;;;;;;;5096271;28;20406;-82
2023/06/07 05:12:33;;;;;;;15.83;7.20;;;;;;;;;;5076230;28;20191;-82
2023/06/07 05:15:00;;;;;;;15.20;7.90;;;;;;;;;;5076786;28;20534;-82
2023/06/07 05:17:28;;;;;;;17.00;8.15;;;;;;;;;;5080371;28;20413;-81
2023/06/07 05:19:55;;;;;;;16.27;8.00;;;;;;;;;;5096291;28;20484;-81
2023/06/07 05:22:21;;;;;;;15.53;7.60;;;;;;;;;;5076593;28;20182;-81
2023/06/07 05:24:47;;;;;;;12.70;7.37;;;;;;;;;;5076884;28;20228;-81
2023/06/07 05:27:14;;;;;;;17.60;7.43;;;;;;;;;;5077235;28;20191;-81
2023/06/07 05:29:40;;;;;;;19.03;7.70;;;;;;;;;;5076854;28;20197;-81
2023/06/07 05:32:06;;;;;;;13.17;7.40;;;;;;;;;;5104841;28;20197;-82
2023/06/07 05:34:32;;;;;;;14.20;7.10;;;;;;;;;;5059802;28;20186;-82
2023/06/07 05:36:58;;;;;;;17.43;7.50;;;;;;;;;;5060140;28;20190;-82
2023/06/07 05:39:25;;;;;;;15.17;7.57;;;;;;;;;;5076013;28;20436;-82
2023/06/07 05:41:51;;;;;;;12.67;7.23;;;;;;;;;;5060042;28;20424;-82
2023/06/07 05:44:17;;;;;;;12.13;7.20;;;;;;;;;;5060055;28;20182;-82
2023/06/07 05:46:43;;;;;;;17.83;7.90;;;;;;;;;;5060196;28;20273;-82
2023/06/07 05:49:09;;;;;;;17.10;7.60;;;;;;;;;;5062734;28;20177;-82
2023/06/07 05:51:36;;;;;;;14.17;7.63;;;;;;;;;;5114217;28;20174;-82
2023/06/07 05:54:02;;;;;;;16.40;8.20;;;;;;;;;;5079786;28;20231;-82
2023/06/07 05:56:28;;;;;;;17.90;8.23;;;;;;;;;;5114786;28;20181;-82
2023/06/07 05:58:54;;;;;;;15.57;8.10;;;;;;;;;;5096512;28;20228;-82
2023/06/07 06:01:21;;;;;;;14.33;8.67;;;;;;;;;;5114418;28;20170;-82
2023/06/07 06:03:47;;;;;;;11.90;7.33;;;;;;;;;;5080269;28;20211;-82
2023/06/07 06:06:16;;;;;;;16.00;8.87;;;;;;;;;;5096311;28;20265;-84
2023/06/07 06:08:43;;;;;;;16.30;9.03;;;;;;;;;;5096690;28;20170;-84
2023/06/07 06:11:11;;;;;;;17.07;7.93;;;;;;;;;;5096936;28;20181;-84
2023/06/07 06:13:37;;;;;;;17.50;8.70;;;;;;;;;;5096355;28;20296;-84
2023/06/07 06:16:03;;;;;;;13.70;8.35;;;;;;;;;;5096408;28;20418;-84
2023/06/07 06:18:29;;;;;;;15.73;8.47;;;;;;;;;;5079695;28;20208;-84
2023/06/07 06:20:55;;;;;;;17.10;9.32;;;;;;;;;;5113754;28;20403;-84
2023/06/07 06:23:21;;;;;;;14.40;8.33;;;;;;;;;;5078878;28;20186;-82
2023/06/07 06:25:47;;;;;;;18.33;8.80;;;;;;;;;;5095545;28;20178;-82
2023/06/07 06:28:13;;;;;;;13.47;8.43;;;;;;;;;;5095723;28;20189;-79
2023/06/07 06:30:39;;;;;;;15.20;8.70;;;;;;;;;;5075648;28;20251;-79
2023/06/07 06:33:05;;;;;;;20.30;9.50;;;;;;;;;;5076402;28;20268;-79
2023/06/07 06:35:32;;;;;;;15.07;9.17;;;;;;;;;;5080877;28;20182;-79
2023/06/07 06:37:59;;;;;;;14.10;8.87;;;;;;;;;;5085372;28;20268;-79
2023/06/07 06:40:26;;;;;;;13.70;8.98;;;;;;;;;;5113358;28;20518;-83
2023/06/07 06:42:52;;;;;;;17.40;8.50;;;;;;;;;;5096695;28;20185;-83
2023/06/07 06:45:18;;;;;;;14.03;9.33;;;;;;;;;;5092673;28;20182;-82
2023/06/07 06:47:44;;;;;;;14.07;8.83;;;;;;;;;;5108038;28;20197;-82
2023/06/07 06:50:14;;;;;;;11.47;7.93;;;;;;;;;;5090497;28;20193;-82
2023/06/07 06:52:41;;;;;;;17.48;9.73;;;;;;;;;;5103624;28;20415;-82
2023/06/07 06:55:07;;;;;;;16.53;8.83;;;;;;;;;;5079638;28;20225;-82
2023/06/07 06:57:34;;;;;;;22.83;9.10;;;;;;;;;;5097680;28;20238;-83
2023/06/07 07:00:00;;;;;;;19.17;8.63;;;;;;;;;;5099526;28;20318;-83
2023/06/07 07:02:26;;;;;;;16.67;8.90;;;;;;;;;;5099334;28;20234;-82
2023/06/07 07:04:53;;;;;;;14.83;8.90;;;;;;;;;;5082768;28;20198;-82
2023/06/07 07:07:19;;;;;;;15.37;8.90;;;;;;;;;;5078831;28;20178;-83
2023/06/07 07:09:45;;;;;;;19.37;9.03;;;;;;;;;;5079228;28;20186;-83
2023/06/07 07:12:11;;;;;;;19.20;9.63;;;;;;;;;;5079185;28;20240;-85
2023/06/07 07:14:37;;;;;;;22.53;10.00;;;;;;;;;;5081815;28;20189;-84
2023/06/07 07:17:03;;;;;;;16.87;9.53;;;;;;;;;;5073827;28;20178;-84
2023/06/07 07:19:29;;;;;;;20.20;10.53;;;;;;;;;;5065669;28;20206;-83
2023/06/07 07:21:55;;;;;;;18.57;9.50;;;;;;;;;;5082317;28;20217;-84
2023/06/07 07:24:21;;;;;;;18.83;9.53;;;;;;;;;;5082146;28;20177;-85
2023/06/07 07:26:48;;;;;;;22.17;9.70;;;;;;;;;;5078378;28;20218;-84
2023/06/07 07:29:14;;;;;;;21.90;9.80;;;;;;;;;;5090179;28;20253;-82
2023/06/07 07:31:40;;;;;;;20.77;10.03;;;;;;;;;;5099083;28;20174;-81
2023/06/07 07:34:08;;;;;;;19.03;9.10;;;;;;;;;;5081328;28;20211;-80
2023/06/07 07:36:34;;;;;;;14.40;9.50;;;;;;;;;;5073833;28;20186;-81
2023/06/07 07:39:05;;;;;;;14.60;9.20;;;;;;;;;;5074471;28;20238;-81
2023/06/07 07:41:32;;;;;;;19.10;9.07;;;;;;;;;;5095599;28;20186;-81
2023/06/07 07:43:58;;;;;;;16.93;8.70;;;;;;;;;;5098645;28;20189;-82
2023/06/07 07:46:24;;;;;;;13.80;9.23;;;;;;;;;;5098943;28;20185;-81
2023/06/07 07:48:50;;;;;;;17.03;8.67;;;;;;;;;;5077843;28;20189;-82
2023/06/07 07:51:16;;;;;;;16.47;8.87;;;;;;;;;;5081975;28;20185;-82
2023/06/07 07:53:42;;;;;;;16.13;9.20;;;;;;;;;;5081993;28;20185;-81
2023/06/07 07:56:09;;;;;;;15.40;8.00;;;;;;;;;;5116368;28;20207;-81
2023/06/07 07:58:35;;;;;;;14.60;8.40;;;;;;;;;;5098677;28;20296;-81
2023/06/07 08:01:02;;;;;;;19.10;8.77;;;;;;;;;;5109050;28;20228;-81
2023/06/07 08:03:28;;;;;;;13.97;8.83;;;;;;;;;;5078262;28;20174;-83
2023/06/07 08:05:54;;;;;;;14.53;7.97;;;;;;;;;;5077451;28;20227;-83
2023/06/07 08:08:21;;;;;;;13.40;7.43;;;;;;;;;;5097819;28;20186;-84
2023/06/07 08:10:47;;;;;;;14.70;7.93;;;;;;;;;;5098284;28;20231;-85
2023/06/07 08:13:14;;;;;;;14.90;7.77;;;;;;;;;;5097866;28;20264;-85
2023/06/07 08:15:40;;;;;;;16.00;9.10;;;;;;;;;;5097387;28;20186;-84
2023/06/07 08:18:06;;;;;;;18.70;8.43;;;;;;;;;;5096734;28;20182;-83
2023/06/07 08:20:32;;;;;;;19.43;9.37;;;;;;;;;;5081482;28;20256;-82
2023/06/07 08:22:58;;;;;;;14.40;7.93;;;;;;;;;;5081165;28;20190;-82
2023/06/07 08:25:25;;;;;;;13.63;8.63;;;;;;;;;;5098361;28;20257;-82
2023/06/07 08:27:51;;;;;;;14.90;8.53;;;;;;;;;;5097189;28;20200;-82
2023/06/07 08:30:17;;;;;;;16.57;8.20;;;;;;;;;;5097549;28;20190;-81
2023/06/07 08:32:45;;;;;;;14.77;8.20;;;;;;;;;;5098156;28;20166;-81
2023/06/07 08:35:12;;;;;;;18.93;8.63;;;;;;;;;;5098324;28;20174;-81
2023/06/07 08:37:38;;;;;;;17.87;8.90;;;;;;;;;;5097733;28;20173;-81
2023/06/07 08:40:08;;;;;;;15.03;9.70;;;;;;;;;;5097076;28;20252;-81
2023/06/07 08:42:34;;;;;;;15.37;8.70;;;;;;;;;;5098611;28;20166;-81
2023/06/07 08:45:00;;;;;;;18.97;8.87;;;;;;;;;;5097642;28;20181;-81
2023/06/07 08:47:28;;;;;;;15.83;8.17;;;;;;;;;;5078734;28;20190;-81
2023/06/07 08:49:55;;;;;;;13.95;8.80;;;;;;;;;;5096073;28;20407;-81
2023/06/07 08:52:23;;;;;;;17.03;8.60;;;;;;;;;;5097049;28;20191;-83
2023/06/07 08:54:50;;;;;;;16.13;8.60;;;;;;;;;;5098818;28;20198;-83
2023/06/07 08:57:17;;;;;;;16.20;9.10;;;;;;;;;;5094360;28;20425;-83
2023/06/07 08:59:46;;;;;;;12.83;8.33;;;;;;;;;;5096857;28;20233;-82
2023/06/07 09:02:13;;;;;;;22.57;10.23;;;;;;;;;;5097185;28;20178;-82
2023/06/07 09:04:40;;;;;;;14.70;8.60;;;;;;;;;;5080338;28;20178;-83
2023/06/07 09:07:07;;;;;;;14.90;8.80;;;;;;;;;;5097906;28;20177;-82
2023/06/07 09:09:33;;;;;;;15.90;9.00;;;;;;;;;;5097483;28;20190;-82
2023/06/07 09:12:00;;;;;;;18.07;9.17;;;;;;;;;;5080538;28;20231;-82
2023/06/07 09:14:28;;;;;;;15.17;9.03;;;;;;;;;;5080231;28;20282;-82
2023/06/07 09:17:00;;;;;;;14.53;9.23;;;;;;;;;;5080315;28;20183;-81
2023/06/07 09:19:37;;;;;;;12.27;8.80;;;;;;;;;;5088354;28;20225;-81
2023/06/07 09:22:04;;;;;;;15.17;9.40;;;;;;;;;;5096827;28;20230;-82
2023/06/07 09:24:31;;;;;;;16.60;9.20;;;;;;;;;;5080150;28;20185;-81
2023/06/07 09:26:57;;;;;;;12.90;8.60;;;;;;;;;;5097432;28;20203;-82
2023/06/07 09:29:24;;;;;;;17.13;8.73;;;;;;;;;;5097595;28;20192;-81
2023/06/07 09:31:50;;;;;;;17.30;9.40;;;;;;;;;;5096813;28;20185;-81
2023/06/07 09:34:26;;;;;;;20.03;8.63;;;;;;;;;;5115093;28;20173;-83
2023/06/07 09:36:53;;;;;;;14.37;8.10;;;;;;;;;;5114724;28;20169;-82
2023/06/07 09:39:23;;;;;;;16.30;9.40;;;;;;;;;;5113328;28;20296;-82
2023/06/07 09:41:54;;;;;;;17.83;8.83;;;;;;;;;;5060878;28;20213;-81
2023/06/07 09:44:31;;;;;;;15.47;9.50;;;;;;;;;;5084128;28;20209;-81
2023/06/07 09:46:57;;;;;;;16.57;9.70;;;;;;;;;;5073333;28;20206;-80
2023/06/07 09:49:26;;;;;;;19.27;9.53;;;;;;;;;;5093690;28;20189;-81
2023/06/07 09:51:53;;;;;;;14.53;9.47;;;;;;;;;;5096218;28;20177;-82
2023/06/07 09:54:20;;;;;;;15.43;9.90;;;;;;;;;;5096974;28;20177;-82
2023/06/07 09:56:46;;;;;;;17.90;11.20;;;;;;;;;;5080504;28;20177;-82
2023/06/07 09:59:13;;;;;;;16.77;11.40;;;;;;;;;;5076268;28;20293;-82
2023/06/07 10:01:45;;;;;;;16.53;10.63;;;;;;;;;;5059566;28;20175;-82
2023/06/07 10:04:11;;;;;;;20.53;10.43;;;;;;;;;;5082701;28;20174;-82
2023/06/07 10:06:40;;;;;;;20.03;10.77;;;;;;;;;;5083839;28;20166;-82
2023/06/07 10:09:06;;;;;;;17.57;10.30;;;;;;;;;;5096237;28;20180;-82
2023/06/07 10:11:33;;;;;;;17.37;10.40;;;;;;;;;;5080048;28;20174;-82
2023/06/07 10:14:07;;;;;;;15.63;10.07;;;;;;;;;;5096813;28;20214;-82
2023/06/07 10:16:37;;;;;;;18.07;10.43;;;;;;;;;;5085406;28;20186;-85
2023/06/07 10:19:27;;;;;;;16.57;9.90;;;;;;;;;;5076153;28;20289;-87
2023/06/07 10:21:53;;;;;;;17.07;10.50;;;;;;;;;;5066749;28;20269;-84
2023/06/07 10:24:38;;;;;;;16.70;9.43;;;;;;;;;;5082352;28;20275;-85
2023/06/07 10:27:08;;;;;;;14.70;9.43;;;;;;;;;;5095587;28;20231;-84
2023/06/07 10:29:37;;;;;;;11.60;9.00;;;;;;;;;;5098008;28;20192;-84
2023/06/07 10:32:12;;;;;;;15.50;9.03;;;;;;;;;;5118491;28;20186;-82
2023/06/07 10:34:39;;;;;;;15.97;9.30;;;;;;;;;;5100269;28;20178;-82
2023/06/07 10:37:09;;;;;;;14.43;9.03;;;;;;;;;;5100247;28;20188;-82
2023/06/07 10:39:35;;;;;;;12.47;8.00;;;;;;;;;;5099763;28;20237;-82
2023/06/07 10:42:01;;;;;;;12.47;8.03;;;;;;;;;;5083398;28;20182;-82
2023/06/07 10:44:29;;;;;;;12.77;7.53;;;;;;;;;;5100205;28;20178;-82
2023/06/07 10:47:14;;;;;;;14.30;8.07;;;;;;;;;;5097776;28;20177;-82
2023/06/07 10:49:40;;;;;;;13.93;7.50;;;;;;;;;;5098725;28;20189;-82
2023/06/07 10:52:06;;;;;;;11.13;7.90;;;;;;;;;;5099902;28;20180;-83
2023/06/07 10:54:33;;;;;;;13.68;7.80;;;;;;;;;;5111500;22;20262;-89
2023/06/07 10:57:02;;;;;;;12.17;8.37;;;;;;;;;;5110281;28;20218;-89
2023/06/07 10:59:29;;;;;;;12.50;7.73;;;;;;;;;;5115387;28;20213;-88
2023/06/07 11:02:15;;;;;;;11.98;7.70;;;;;;;;;;5095804;28;20174;-88
2023/06/07 11:04:41;;;;;;;13.53;7.93;;;;;;;;;;5109607;28;20204;-88
2023/06/07 11:07:18;;;;;;;13.73;7.50;;;;;;;;;;5090610;28;20186;-88
2023/06/07 11:09:46;;;;;;;13.37;7.90;;;;;;;;;;5095250;28;20182;-88
2023/06/07 11:12:31;;;;;;;12.73;7.50;;;;;;;;;;5095756;28;20178;-89
2023/06/07 11:15:16;;;;;;;10.75;8.00;;;;;;;;;;5096370;28;20179;-88
2023/06/07 11:17:58;;;;;;;13.63;8.30;;;;;;;;;;5096247;28;20296;-88
2023/06/07 11:20:40;;;;;;;15.33;7.93;;;;;;;;;;5095222;28;20182;-89
2023/06/07 11:23:25;;;;;;;14.82;8.13;;;;;;;;;;5095485;28;20175;-90
2023/06/07 11:26:11;;;;;;;13.43;7.32;;;;;;;;;;5079197;28;20243;-89
2023/06/07 11:28:46;;;;;;;11.75;7.75;;;;;;;;;;5092998;28;20205;-89
2023/06/07 11:31:15;;;;;;;13.93;8.23;;;;;;;;;;5076742;28;20171;-90
2023/06/07 11:33:41;;;;;;;14.82;8.55;;;;;;;;;;5076710;28;20199;-87
2023/06/07 11:36:09;;;;;;;15.38;8.60;;;;;;;;;;5075621;28;20175;-88
2023/06/07 11:38:35;;;;;;;12.23;7.95;;;;;;;;;;5080205;28;20246;-89
2023/06/07 11:41:05;;;;;;;10.52;6.78;;;;;;;;;;5089739;28;20179;-89
2023/06/07 11:43:31;;;;;;;11.00;6.80;;;;;;;;;;5113120;28;20175;-90
2023/06/07 11:45:58;;;;;;;10.05;6.93;;;;;;;;;;5113401;28;20220;-89
2023/06/07 11:48:28;;;;;;;15.90;7.53;;;;;;;;;;5096352;28;20177;-88
2023/06/07 11:50:54;;;;;;;13.80;7.93;;;;;;;;;;5079537;28;20182;-88
2023/06/07 11:53:21;;;;;;;15.32;8.48;;;;;;;;;;5097267;28;20212;-89
2023/06/07 11:55:47;;;;;;;15.00;8.20;;;;;;;;;;5123080;27;20196;-89
2023/06/07 11:58:14;;;;;;;14.93;7.88;;;;;;;;;;5100365;28;20173;-90
2023/06/07 12:00:42;;;;;;;15.77;7.85;;;;;;;;;;5115915;28;20170;-89
2023/06/07 12:03:11;;;;;;;11.05;7.18;;;;;;;;;;5115309;28;20208;-89
2023/06/07 12:05:37;;;;;;;13.88;7.30;;;;;;;;;;5115154;28;20193;-88
2023/06/07 12:08:11;;;;;;;12.80;7.65;;;;;;;;;;5114828;28;20178;-88
2023/06/07 12:10:37;;;;;;;10.57;7.65;;;;;;;;;;5115126;28;20170;-89
2023/06/07 12:13:14;;;;;;;16.95;7.00;;;;;;;;;;5115532;27;20188;-90
2023/06/07 12:15:47;;;;;;;15.82;7.00;;;;;;;;;;5115431;28;20170;-91
2023/06/07 12:18:14;;;;;;;13.32;6.88;;;;;;;;;;5115298;28;20273;-90
2023/06/07 12:20:43;;;;;;;14.20;7.40;;;;;;;;;;5115500;28;20219;-90
2023/06/07 12:23:12;;;;;;;13.95;7.72;;;;;;;;;;5112232;28;20215;-90
2023/06/07 12:25:42;;;;;;;12.82;8.63;;;;;;;;;;5100864;28;20242;-90
2023/06/07 12:28:15;;;;;;;11.32;7.80;;;;;;;;;;5112562;28;20197;-89
2023/06/07 12:30:44;;;;;;;14.88;7.13;;;;;;;;;;5114764;27;20178;-88
2023/06/07 12:33:16;;;;;;;14.60;8.57;;;;;;;;;;5114689;28;20177;-89
2023/06/07 12:35:50;;;;;;;15.65;7.95;;;;;;;;;;5114049;28;20193;-90
2023/06/07 12:38:21;;;;;;;12.82;7.38;;;;;;;;;;5096604;28;20184;-90
2023/06/07 12:40:48;;;;;;;16.73;7.63;;;;;;;;;;5077164;28;20232;-90
2023/06/07 12:43:14;;;;;;;12.73;7.32;;;;;;;;;;5109786;28;20174;-90
2023/06/07 12:45:51;;;;;;;15.13;7.78;;;;;;;;;;5093712;28;20175;-90
2023/06/07 12:48:17;;;;;;;14.38;7.35;;;;;;;;;;5093915;28;20173;-91
2023/06/07 12:50:48;;;;;;;12.13;7.00;;;;;;;;;;5093337;28;20223;-90
2023/06/07 12:53:14;;;;;;;16.13;7.95;;;;;;;;;;5108792;28;20185;-90
2023/06/07 12:55:41;;;;;;;14.10;8.07;;;;;;;;;;5096247;28;20224;-90
2023/06/07 12:58:07;;;;;;;14.63;8.05;;;;;;;;;;5097165;28;20181;-90
2023/06/07 13:00:35;;;;;;;13.32;7.88;;;;;;;;;;5095258;28;20186;-90
2023/06/07 13:03:06;;;;;;;10.27;7.47;;;;;;;;;;5096385;28;20259;-90
2023/06/07 13:05:32;;;;;;;13.68;6.97;;;;;;;;;;5080710;28;20243;-90
2023/06/07 13:07:58;;;;;;;14.68;7.57;;;;;;;;;;5095865;27;20177;-90
2023/06/07 13:10:24;;;;;;;13.55;6.60;;;;;;;;;;5097313;28;20227;-90
2023/06/07 13:12:58;;;;;;;11.60;6.82;;;;;;;;;;5113997;28;20174;-90
2023/06/07 13:15:27;;;;;;;10.02;5.88;;;;;;;;;;5114010;28;20192;-90
2023/06/07 13:17:53;;;;;;;11.13;6.85;;;;;;;;;;5107511;28;20182;-90
2023/06/07 13:20:19;;;;;;;13.23;6.47;;;;;;;;;;5096592;28;20233;-91
2023/06/07 13:22:45;;;;;;;18.70;6.95;;;;;;;;;;5096820;28;20178;-90
2023/06/07 13:25:14;;;;;;;13.65;6.55;;;;;;;;;;5096616;28;20276;-89
2023/06/07 13:27:42;;;;;;;13.07;6.50;;;;;;;;;;5096064;28;20185;-90
2023/06/07 13:30:11;;;;;;;14.18;6.40;;;;;;;;;;5096590;28;20220;-90
2023/06/07 13:32:37;;;;;;;12.50;6.70;;;;;;;;;;5095782;28;20178;-90
2023/06/07 13:35:03;;;;;;;11.60;6.57;;;;;;;;;;5096290;28;20186;-90
2023/06/07 13:37:29;;;;;;;11.68;6.28;;;;;;;;;;5095836;28;20178;-90
2023/06/07 13:39:58;;;;;;;15.63;6.15;;;;;;;;;;5095000;28;20209;-90
2023/06/07 13:42:26;;;;;;;10.98;6.53;;;;;;;;;;5095373;28;20177;-91
2023/06/07 13:44:52;;;;;;;9.55;6.25;;;;;;;;;;5088408;28;20312;-90
2023/06/07 13:47:21;;;;;;;11.57;6.50;;;;;;;;;;5088187;28;20207;-89
2023/06/07 13:49:52;;;;;;;13.63;7.35;;;;;;;;;;5095977;28;20264;-90
2023/06/07 13:52:19;;;;;;;12.27;6.07;;;;;;;;;;5095661;28;20174;-90
2023/06/07 13:54:46;;;;;;;14.23;6.55;;;;;;;;;;5095206;28;20286;-90
2023/06/07 13:57:14;;;;;;;13.10;6.70;;;;;;;;;;5096165;28;20206;-90
2023/06/07 13:59:44;;;;;;;10.02;5.93;;;;;;;;;;5096524;28;20205;-91
2023/06/07 14:02:12;;;;;;;8.45;5.60;;;;;;;;;;5094946;28;20207;-91
2023/06/07 14:04:41;;;;;;;11.93;5.40;;;;;;;;;;5100025;28;20170;-89
2023/06/07 14:07:15;;;;;;;13.15;6.20;;;;;;;;;;5083078;28;20174;-90
2023/06/07 14:09:41;;;;;;;11.98;5.75;;;;;;;;;;5114882;28;20185;-90
2023/06/07 14:12:10;;;;;;;13.68;5.45;;;;;;;;;;5117415;27;20182;-89
2023/06/07 14:14:39;;;;;;;10.77;6.07;;;;;;;;;;5100148;28;20174;-89
2023/06/07 14:17:05;;;;;;;10.98;5.20;;;;;;;;;;5098940;28;20186;-90
2023/06/07 14:19:31;;;;;;;11.00;5.72;;;;;;;;;;5100308;28;20197;-89
2023/06/07 14:21:59;;;;;;;10.30;6.25;;;;;;;;;;5100200;28;20218;-89
2023/06/07 14:24:26;;;;;;;10.32;5.85;;;;;;;;;;5096387;28;20277;-90
2023/06/07 14:26:52;;;;;;;12.20;5.90;;;;;;;;;;5107845;28;20178;-90
2023/06/07 14:29:21;;;;;;;10.55;6.07;;;;;;;;;;5082450;28;20185;-89
2023/06/07 14:31:47;;;;;;;12.98;5.95;;;;;;;;;;5116910;28;20170;-90